Rechercher aéroport 
image banner adimage banner adimage banner ad
image banner ad

O52 - Sutter County

Situé à Yuba City, United States

ICAO - O52, IATA -

Données fournies par Airmate  

Information générale

Coordonnées: N39°7'25" W121°36'19"
Élévation : 60 feet MSL.
Variation magnétique : 16° East
Voir autres Aéroports à California

Données opérationnelles

Special qualification required
Heure actuelle UTC:
Heure actuelle locale:
Météo à : KMYV - Yuba County ( 4 km )
METAR: KMYV 210253Z AUTO 16006KT 10SM CLR 26/04 A2991 RMK AO2 SLP131 T02610044 53006
Voir NOTAMs / SUP AIP / TFR affectant cet aéroport [VIEW]
Fréquences de communication: [VIEW]

Pistes:

Identifiant RWYQFULongueur (ft)Largeur (ft)SurfaceLDA (ft)
17304575ASPH
35304575ASPH

Coordonnées de l'aéroport

Adresse: Yuba City United States

Vue satellite de O52